Time;durP1;ratioP1;P1;durP2;ratioP2;P2;SDS_P1;SDS_P2;PMS_P1;PMS_P2;Temp;Humidity;BMP_temperature;BMP_pressure;BME280_temperature;BME280_humidity;BME280_pressure;Samples;Min_cycle;Max_cycle;Signal;HPM_P1;HPM_P2
2021/12/10 09:12:13;;;;;;;;;4.00;1.00;;;;;13.14;63.25;101067.41;5191468;27;45403;-91
2021/12/10 09:14:43;;;;;;;;;2.25;2.25;;;;;13.48;64.06;101082.72;5139906;27;45349;-92
2021/12/10 09:34:09;;;;;;;;;8.25;6.75;;;;;14.23;60.92;101112.88;5087999;27;45525;-94
2021/12/10 09:36:50;;;;;;;;;4.80;2.60;;;;;14.31;61.25;101110.47;5057646;27;45705;-96
2021/12/10 09:39:17;;;;;;;;;3.80;2.00;;;;;14.58;60.50;101143.13;5061839;27;45381;-92
2021/12/10 09:41:43;;;;;;;;;2.50;1.00;;;;;14.54;60.03;101128.31;5043627;27;47142;-94
2021/12/10 09:44:08;;;;;;;;;2.50;2.00;;;;;14.40;60.30;101103.53;5040830;27;47096;-93
2021/12/10 09:46:44;;;;;;;;;1.75;1.75;;;;;14.72;60.39;101140.22;5038571;27;45873;-93
2021/12/10 09:49:10;;;;;;;;;3.75;2.25;;;;;14.52;59.91;101101.72;5055891;27;45687;-92
2021/12/10 09:51:41;;;;;;;;;3.00;2.00;;;;;14.71;60.20;101138.56;5038881;27;46937;-93
2021/12/10 09:54:11;;;;;;;;;2.00;2.00;;;;;14.54;60.20;101099.81;5039755;27;48007;-94
2021/12/10 09:56:40;;;;;;;;;4.75;3.00;;;;;14.90;59.88;101150.47;5037326;27;45856;-93
2021/12/10 10:00:10;;;;;;;;;2.40;1.00;;;;;14.73;60.52;101115.22;5044292;27;45446;-95
2021/12/10 10:02:33;;;;;;;;;1.75;1.75;;;;;14.86;59.83;101130.25;4997747;28;45553;-94
2021/12/10 10:05:07;;;;;;;;;3.00;1.75;;;;;14.78;59.66;101095.31;4989903;28;46972;-93
2021/12/10 10:07:42;;;;;;;;;1.00;0.00;;;;;14.87;59.50;101099.94;4975395;28;45715;-94
2021/12/10 10:10:13;;;;;;;;;2.60;2.40;;;;;15.07;59.74;101150.94;4978066;28;45431;-92
2021/12/10 10:12:40;;;;;;;;;2.75;2.50;;;;;15.04;59.61;101140.50;4981437;28;45728;-92
2021/12/10 10:15:09;;;;;;;;;4.40;1.00;;;;;15.09;58.75;101149.00;4972816;28;45727;-92
2021/12/10 10:17:38;;;;;;;;;1.20;1.00;;;;;14.95;59.09;101118.88;4978689;28;45569;-94
2021/12/10 10:20:08;;;;;;;;;1.00;0.20;;;;;14.91;58.58;101089.88;4953450;28;45560;-94
2021/12/10 10:22:44;;;;;;;;;6.00;1.00;;;;;15.00;57.93;101104.31;4991314;28;45353;-94
2021/12/10 10:25:11;;;;;;;;;4.00;2.25;;;;;14.99;58.04;101118.66;4951734;28;47346;-92
2021/12/10 10:27:38;;;;;;;;;3.80;2.40;;;;;15.21;58.26;101143.63;4979513;28;45354;-94
2021/12/10 10:30:06;;;;;;;;;2.80;1.20;;;;;15.23;58.00;101147.88;5011453;28;45668;-93
2021/12/10 10:32:45;;;;;;;;;2.75;1.75;;;;;14.96;58.35;101103.72;4979527;28;45392;-95
2021/12/10 10:35:28;;;;;;;;;;;;;;;;;;;;;
2021/12/10 10:37:55;;;;;;;;;2.60;1.80;;;;;15.11;57.49;101115.00;4978561;28;73404;-93
2021/12/10 10:40:24;;;;;;;;;4.20;2.00;;;;;15.15;58.35;101119.09;5040321;28;45927;-93
2021/12/10 10:42:58;;;;;;;;;2.00;2.00;;;;;15.11;58.42;101111.47;5024950;28;44859;-93
2021/12/10 10:45:28;;;;;;;;;1.20;1.20;;;;;15.16;58.14;101110.13;5043831;28;46306;-93
2021/12/10 10:47:54;;;;;;;;;2.60;2.60;;;;;15.28;58.28;101123.47;5024152;27;45387;-93
2021/12/10 10:50:52;;;;;;;;;1.00;1.00;;;;;15.16;57.92;101098.59;5025628;28;45534;-95
2021/12/10 10:54:14;;;;;;;;;3.00;1.75;;;;;15.34;58.30;101117.63;5063370;27;45496;-96
2021/12/10 10:57:00;;;;;;;;;1.00;1.00;;;;;15.20;57.68;101091.16;5074737;27;47949;-93
2021/12/10 10:59:27;;;;;;;;;4.80;2.00;;;;;15.05;57.80;101072.72;5027473;28;45565;-94
2021/12/10 11:02:07;;;;;;;;;2.00;2.00;;;;;15.35;57.76;101113.97;5030782;28;45431;-92
2021/12/10 11:05:13;;;;;;;;;;;;;;;;;;;;;
2021/12/10 11:07:52;;;;;;;;;3.00;1.00;;;;;15.15;57.17;101097.72;5044450;28;74538;-92
2021/12/10 11:10:29;;;;;;;;;0.80;0.80;;;;;15.04;57.15;101089.72;5022722;28;45649;-92
2021/12/10 11:13:14;;;;;;;;;2.20;1.00;;;;;15.13;58.22;101110.38;5042611;28;45754;-92
2021/12/10 11:16:09;;;;;;;;;;;;;;;;;;;;;
2021/12/10 11:18:57;;;;;;;;;2.50;2.00;;;;;15.17;57.81;101114.47;5075136;28;74368;-94
2021/12/10 11:21:54;;;;;;;;;2.00;2.00;;;;;15.39;58.16;101155.53;5041036;28;45446;-95
2021/12/10 11:24:31;;;;;;;;;4.40;2.60;;;;;15.34;57.64;101144.38;5075377;28;45559;-94
2021/12/10 11:27:03;;;;;;;;;4.50;2.00;;;;;15.39;57.92;101154.66;5037200;28;45378;-93
2021/12/10 11:29:41;;;;;;;;;4.00;2.00;;;;;15.47;57.50;101154.03;5030181;28;46818;-92
2021/12/10 11:32:13;;;;;;;;;2.20;2.00;;;;;15.24;57.59;101122.00;5040800;28;46216;-92
2021/12/10 11:34:55;;;;;;;;;1.80;1.20;;;;;15.28;57.60;101112.78;5039955;28;45345;-94
2021/12/10 11:37:48;;;;;;;;;4.00;3.00;;;;;15.53;57.43;101156.22;5036622;28;45373;-94
2021/12/10 11:41:00;;;;;;;;;0.40;0.00;;;;;15.54;57.58;101155.25;5060702;28;47101;-95
2021/12/10 11:49:35;;;;;;;;;1.80;1.00;;;;;15.49;57.14;101126.19;5009921;28;45363;-92
2021/12/10 11:57:55;;;;;;;;;4.00;1.00;;;;;15.74;57.68;101142.06;5054815;28;45397;-95
2021/12/10 12:00:27;;;;;;;;;2.75;1.25;;;;;15.56;57.23;101091.78;5019326;28;45537;-94
2021/12/10 12:03:02;;;;;;;;;2.00;1.80;;;;;15.93;57.05;101132.47;5018364;28;48318;-93
2021/12/10 12:05:32;;;;;;;;;6.00;1.80;;;;;15.94;56.70;101115.47;5024624;28;45706;-93
2021/12/10 12:08:00;;;;;;;;;4.40;2.00;;;;;15.82;56.54;101088.75;5028031;28;45402;-93
2021/12/10 12:10:39;;;;;;;;;1.00;1.00;;;;;16.15;56.57;101134.22;5019766;28;45457;-93
2021/12/10 12:15:53;;;;;;;;;1.60;1.60;;;;;16.25;56.32;101146.84;5037362;28;45489;-93
2021/12/10 12:18:43;;;;;;;;;3.20;2.00;;;;;15.96;56.26;101083.22;5009517;28;45370;-93
2021/12/10 12:27:12;;;;;;;;;1.60;1.60;;;;;16.38;56.07;101143.94;5047240;28;45460;-94
2021/12/10 12:29:58;;;;;;;;;1.40;1.40;;;;;16.10;55.78;101101.66;5028571;28;47107;-93
2021/12/10 12:32:28;;;;;;;;;2.00;2.00;;;;;16.18;56.07;101114.38;5003555;28;47640;-93
2021/12/10 12:34:53;;;;;;;;;0.80;0.80;;;;;16.14;55.87;101111.13;5017357;28;47497;-93
2021/12/10 12:37:20;;;;;;;;;1.50;1.50;;;;;16.30;55.78;101123.19;5012287;28;45898;-94
2021/12/10 12:39:52;;;;;;;;;1.00;1.00;;;;;16.46;56.20;101149.53;5021832;28;45370;-93
2021/12/10 12:42:33;;;;;;;;;4.40;1.60;;;;;16.41;55.70;101129.47;5019617;28;45390;-94
2021/12/10 12:45:08;;;;;;;;;0.60;0.60;;;;;16.32;55.60;101120.41;5048425;28;48169;-94
2021/12/10 12:47:46;;;;;;;;;1.40;0.80;;;;;16.33;55.56;101112.22;4999108;28;45605;-95
2021/12/10 12:50:16;;;;;;;;;1.20;1.20;;;;;16.47;55.75;101140.47;5021660;28;45382;-95
2021/12/10 12:52:44;;;;;;;;;2.60;2.40;;;;;16.53;55.93;101146.28;5021910;28;45381;-94
2021/12/10 12:55:47;;;;;;;;;0.60;0.60;;;;;16.55;55.16;101147.03;5017631;28;47354;-94
2021/12/10 12:58:18;;;;;;;;;1.60;0.60;;;;;16.36;55.68;101129.84;5024588;28;45502;-95
2021/12/10 13:01:02;;;;;;;;;1.80;1.00;;;;;16.47;55.55;101145.84;4998884;28;45305;-93
2021/12/10 13:03:43;;;;;;;;;3.00;2.50;;;;;16.44;55.12;101119.31;5020851;28;45555;-95
2021/12/10 13:06:26;;;;;;;;;2.20;1.40;;;;;16.59;55.30;101162.69;5003064;28;47210;-95
2021/12/10 13:09:26;;;;;;;;;2.00;2.00;;;;;16.62;55.16;101158.88;5029955;28;45387;-96
2021/12/10 13:12:07;;;;;;;;;0.80;0.80;;;;;16.57;55.60;101166.47;5022171;28;45468;-95
2021/12/10 13:14:45;;;;;;;;;4.00;1.20;;;;;16.57;55.48;101158.44;5006323;28;45306;-96
2021/12/10 13:17:22;;;;;;;;;1.60;0.40;;;;;16.61;55.39;101167.91;5039746;28;47390;-93
2021/12/10 13:19:47;;;;;;;;;2.80;1.80;;;;;16.61;55.10;101161.72;5015957;28;46209;-91
2021/12/10 13:22:19;;;;;;;;;2.50;2.50;;;;;16.34;55.17;101113.94;5018953;28;45516;-95
2021/12/10 13:24:46;;;;;;;;;2.40;2.40;;;;;-150.09;100.00;59807.75;5020002;28;45911;-91
2021/12/10 13:27:12;;;;;;;;;5.00;2.00;;;;;-150.09;100.00;59807.75;5007448;28;47182;-91
2021/12/10 13:29:37;;;;;;;;;1.50;0.75;;;;;-150.09;100.00;59807.75;5036299;28;47673;-92
2021/12/10 13:32:11;;;;;;;;;2.25;0.50;;;;;-150.09;100.00;59807.75;5029598;28;45482;-93
2021/12/10 13:35:21;;;;;;;;;;;;;;;;;;;;;
2021/12/10 13:37:49;;;;;;;;;0.80;0.80;;;;;-150.09;100.00;59807.75;5054524;28;75430;-93
2021/12/10 13:40:15;;;;;;;;;1.80;0.60;;;;;-150.09;100.00;59807.75;5031312;28;45827;-93
2021/12/10 13:45:46;;;;;;;;;2.00;1.60;;;;;-150.09;100.00;59807.75;5199146;22;45950;-96
2021/12/10 13:48:14;;;;;;;;;1.60;1.60;;;;;-150.09;100.00;59807.75;5033022;28;47452;-94
2021/12/10 13:50:47;;;;;;;;;1.40;1.40;;;;;-150.09;100.00;59807.75;5015879;28;46022;-95
2021/12/10 13:53:14;;;;;;;;;2.20;2.20;;;;;-150.09;100.00;59807.75;5021296;28;45473;-93
2021/12/10 13:58:39;;;;;;;;;2.00;0.60;;;;;-150.09;100.00;59807.75;5056785;28;45512;-96
2021/12/10 14:01:13;;;;;;;;;1.60;1.60;;;;;-150.09;100.00;59807.75;5041338;28;45599;-93
2021/12/10 14:03:46;;;;;;;;;1.60;1.60;;;;;-150.09;100.00;59807.75;5057256;28;45566;-95
2021/12/10 14:06:15;;;;;;;;;1.60;0.60;;;;;-150.09;100.00;59807.75;5044748;28;45673;-92
2021/12/10 14:09:12;;;;;;;;;0.40;0.40;;;;;-150.09;100.00;59807.75;5045574;28;46971;-94
2021/12/10 14:11:58;;;;;;;;;2.80;1.20;;;;;-150.09;100.00;59807.75;5035392;28;45524;-94
2021/12/10 14:14:31;;;;;;;;;3.00;1.80;;;;;-150.09;100.00;59807.75;5023621;28;45320;-92
2021/12/10 14:17:02;;;;;;;;;5.20;1.00;;;;;-150.09;100.00;59807.75;5030141;28;45342;-93
2021/12/10 14:19:32;;;;;;;;;1.00;0.00;;;;;-150.09;100.00;59807.75;5022370;28;48553;-91
2021/12/10 14:21:58;;;;;;;;;0.60;0.60;;;;;-150.09;100.00;59807.75;5037241;28;45450;-92
2021/12/10 14:24:44;;;;;;;;;0.50;0.50;;;;;-150.09;100.00;59807.75;5039964;28;45596;-89
2021/12/10 17:24:52;;;;;;;;;4.75;4.00;;;;;13.62;60.90;101478.19;5070351;27;45398;-96
2021/12/10 17:28:02;;;;;;;;;3.00;2.25;;;;;13.61;60.21;101434.69;5024262;28;45574;-94
2021/12/10 17:33:52;;;;;;;;;3.25;3.00;;;;;14.02;59.29;101452.38;5043343;28;45612;-96
2021/12/10 17:36:22;;;;;;;;;5.00;4.25;;;;;14.21;59.02;101459.94;5020424;28;47970;-96
2021/12/10 17:38:49;;;;;;;;;6.00;3.75;;;;;14.20;59.03;101444.88;5039539;28;50327;-96
2021/12/10 17:42:04;;;;;;;;;;;;;;;;;;;;;
2021/12/10 17:44:37;;;;;;;;;6.00;5.25;;;;;14.64;58.25;101491.66;5063717;27;70606;-93
2021/12/10 17:47:10;;;;;;;;;6.00;6.00;;;;;14.72;58.15;101508.81;5047520;28;47910;-94
2021/12/10 17:49:38;;;;;;;;;6.75;3.75;;;;;14.66;57.93;101485.22;5032719;28;45387;-94
2021/12/10 17:52:09;;;;;;;;;4.50;4.00;;;;;14.76;58.19;101487.22;5022461;28;45413;-93
2021/12/10 17:54:41;;;;;;;;;9.00;5.75;;;;;14.95;57.39;101503.66;5030930;28;45580;-94
2021/12/10 17:57:09;;;;;;;;;8.75;5.00;;;;;15.02;57.25;101497.84;5037278;28;48359;-96
2021/12/10 17:59:35;;;;;;;;;4.20;3.20;;;;;15.08;57.39;101508.09;5025060;28;44853;-93
2021/12/10 18:02:22;;;;;;;;;4.00;3.00;;;;;15.14;57.22;101512.13;5047152;28;45438;-95
2021/12/10 18:05:13;;;;;;;;;5.25;5.25;;;;;15.08;56.86;101505.41;5065692;27;45228;-96
2021/12/10 18:07:41;;;;;;;;;8.00;4.50;;;;;14.95;56.37;101476.94;5016676;28;47281;-93
2021/12/10 18:10:20;;;;;;;;;4.00;3.00;;;;;15.08;56.07;101475.16;5017160;28;45291;-93
2021/12/10 18:13:14;;;;;;;;;5.20;3.00;;;;;15.32;56.21;101509.88;5047190;28;45624;-92
2021/12/10 18:16:10;;;;;;;;;3.50;3.00;;;;;15.34;55.76;101523.16;5033671;28;45635;-94
2021/12/10 18:18:42;;;;;;;;;6.50;5.00;;;;;15.21;55.95;101507.16;5014169;28;48360;-95
2021/12/10 18:21:11;;;;;;;;;4.00;3.60;;;;;15.11;55.88;101494.50;5009987;28;45669;-94
2021/12/10 18:23:40;;;;;;;;;3.00;3.00;;;;;15.16;56.31;101489.66;5042855;28;45414;-95
2021/12/10 18:26:06;;;;;;;;;3.50;2.75;;;;;15.46;56.00;101537.41;5012756;28;45583;-94
2021/12/10 18:28:38;;;;;;;;;6.75;4.25;;;;;15.39;55.91;101531.69;5028523;28;47474;-92
2021/12/10 18:31:10;;;;;;;;;3.80;2.00;;;;;15.20;55.86;101510.81;4967037;28;45883;-94
2021/12/10 18:33:42;;;;;;;;;3.40;3.00;;;;;15.56;55.98;101565.16;5029802;28;45466;-94
2021/12/10 18:36:11;;;;;;;;;3.25;2.00;;;;;15.46;55.51;101545.44;4999141;28;45440;-92
2021/12/10 18:38:37;;;;;;;;;2.80;2.80;;;;;15.37;55.15;101547.84;4977381;28;47746;-94
2021/12/10 18:41:05;;;;;;;;;0.00;0.00;;;;;15.41;55.05;101555.59;4997381;28;45515;-93
2021/12/10 18:43:35;;;;;;;;;2.00;0.20;;;;;15.54;55.17;101575.13;4967350;28;45393;-94
2021/12/10 18:46:13;;;;;;;;;3.50;3.00;;;;;15.49;55.45;101563.94;4980490;28;46078;-96
2021/12/10 18:48:39;;;;;;;;;2.00;2.00;;;;;15.44;54.87;101566.06;4978433;28;47138;-95
2021/12/10 18:51:12;;;;;;;;;2.00;2.00;;;;;15.53;55.28;101581.44;4992287;28;45428;-96
2021/12/10 18:53:44;;;;;;;;;1.80;1.80;;;;;15.50;54.89;101574.50;5020631;28;45553;-94
2021/12/10 18:56:12;;;;;;;;;3.00;3.00;;;;;15.45;54.98;101573.16;5001429;28;45476;-94
2021/12/10 18:58:43;;;;;;;;;2.75;2.75;;;;;15.50;54.97;101585.19;5003504;28;47209;-96
2021/12/10 19:01:19;;;;;;;;;6.00;3.80;;;;;15.34;54.92;101550.75;5007127;28;45891;-95
2021/12/10 19:03:51;;;;;;;;;4.75;3.00;;;;;15.52;55.00;101584.25;5022903;28;45668;-94
2021/12/10 19:06:19;;;;;;;;;5.75;3.00;;;;;15.37;55.25;101565.69;5036128;28;45451;-92
2021/12/10 19:08:54;;;;;;;;;9.00;6.00;;;;;15.58;55.04;101606.03;5010114;28;47077;-92
2021/12/10 19:11:23;;;;;;;;;5.60;5.40;;;;;15.31;55.01;101567.00;4991090;28;45516;-96
2021/12/10 19:14:10;;;;;;;;;5.20;3.20;;;;;15.45;54.98;101594.53;5019878;28;45642;-93
2021/12/10 19:16:41;;;;;;;;;5.25;4.00;;;;;15.39;55.00;101587.81;5020258;28;45492;-93
2021/12/10 19:19:26;;;;;;;;;4.60;2.80;;;;;15.36;54.77;101590.72;4986676;28;47480;-92
2021/12/10 19:21:55;;;;;;;;;5.60;4.00;;;;;15.57;54.52;101630.22;5032396;28;45741;-92
